Annapolis, Illinois
Current Conditions -  °F | °C
As of 11:55 PM on Tuesday 21 Oct 2014 (Local Time) from KRSV Reporting Station
Clear Clear  
Wind Chill: 44°   Ceiling: Unl
Heat Index: 47°   Visibility: 10mi
Dew Point: 44°   Wind: 6mph
Humidity: 89%   Direction: 10°N
Pressure: 30.23"   Gusts: NA
Location:  39.14°N, 87.82°W
Report Text: KRSV 220455Z AUTO 01005KT 10SM CLR 08/06 A3023 RMK AO2 T00810064
Loading
Personal Weather Stations






























Interactive Weather Map
Tropical Storm Tracking
New forecast layout! Learn more

10-Day Weather Forecast

Advertisements
Track Severe Weather on mobile